Time;durP1;ratioP1;P1;durP2;ratioP2;P2;SDS_P1;SDS_P2;PMS_P1;PMS_P2;Temp;Humidity;BMP_temperature;BMP_pressure;BME280_temperature;BME280_humidity;BME280_pressure;Samples;Min_cycle;Max_cycle;Signal;HPM_P1;HPM_P2
2021/09/25 00:00:21;;;;;;;13.20;8.60;;;;;;;11.02;75.56;98371.73;27272;1218;3027739;-67
2021/09/25 00:02:50;;;;;;;16.90;9.00;;;;;;;10.76;76.25;98379.91;27253;1218;3049814;-66
2021/09/25 00:05:19;;;;;;;11.20;6.50;;;;;;;10.51;77.89;98381.34;27288;1202;3026452;-65
2021/09/25 00:07:48;;;;;;;12.10;6.90;;;;;;;11.09;76.58;98382.16;27240;1216;3055540;-71
2021/09/25 00:10:17;;;;;;;14.60;8.40;;;;;;;11.14;75.70;98383.16;27185;1218;3026291;-67
2021/09/25 00:12:45;;;;;;;12.80;8.90;;;;;;;10.93;76.05;98379.94;27258;1216;3051393;-67
2021/09/25 00:15:15;;;;;;;15.40;9.60;;;;;;;10.59;77.10;98377.70;27200;1216;3029365;-65
2021/09/25 00:17:45;;;;;;;12.70;7.30;;;;;;;10.49;77.59;98382.88;27206;1217;3053525;-68
2021/09/25 00:20:15;;;;;;;10.60;8.10;;;;;;;10.86;76.96;98385.23;27221;1218;3025796;-66
2021/09/25 00:22:44;;;;;;;14.50;8.40;;;;;;;11.04;75.99;98384.86;27212;1209;3026040;-67
2021/09/25 00:25:14;;;;;;;13.90;8.10;;;;;;;10.86;76.10;98385.94;27202;1209;3025825;-62
2021/09/25 00:27:43;;;;;;;16.10;9.00;;;;;;;10.63;76.70;98385.30;27257;1219;3028103;-65
2021/09/25 00:30:13;;;;;;;14.30;8.80;;;;;;;10.55;76.57;98392.88;27195;1218;3055972;-71
2021/09/25 00:32:41;;;;;;;12.30;5.90;;;;;;;10.37;77.67;98392.20;27210;1209;3026060;-62
2021/09/25 00:35:11;;;;;;;12.00;7.00;;;;;;;10.98;76.32;98397.42;27260;1208;3025788;-68
2021/09/25 00:37:40;;;;;;;10.20;7.40;;;;;;;11.04;75.16;98399.24;27234;1218;3055165;-69
2021/09/25 00:40:10;;;;;;;20.10;8.50;;;;;;;10.80;75.75;98402.89;27215;1218;3028095;-65
2021/09/25 00:42:39;;;;;;;18.20;9.90;;;;;;;10.59;76.19;98403.27;27264;1218;3054455;-70
2021/09/25 00:45:08;;;;;;;16.20;8.90;;;;;;;10.35;76.77;98406.17;27234;1210;3025759;-73
2021/09/25 00:47:37;;;;;;;19.80;8.50;;;;;;;10.14;77.98;98401.98;27263;1218;3051455;-68
2021/09/25 00:50:07;;;;;;;22.20;8.30;;;;;;;10.56;77.31;98398.04;27249;1218;3026989;-68
2021/09/25 00:52:36;;;;;;;16.20;8.80;;;;;;;10.98;75.48;98396.75;27234;1218;3048858;-67
2021/09/25 00:55:05;;;;;;;15.90;8.70;;;;;;;10.78;75.45;98390.64;27258;1218;3028267;-64
2021/09/25 00:57:34;;;;;;;15.20;8.10;;;;;;;10.44;76.46;98396.33;27244;1218;3069941;-69
2021/09/25 01:00:04;;;;;;;13.00;7.40;;;;;;;10.14;77.46;98397.54;27259;1219;3027848;-64
2021/09/25 01:02:36;;;;;;;12.70;6.40;;;;;;;10.05;78.44;98401.40;27235;1216;3049008;-66
2021/09/25 01:05:06;;;;;;;13.30;7.90;;;;;;;10.69;76.45;98401.67;27249;1219;3028277;-73
2021/09/25 01:07:34;;;;;;;14.90;8.70;;;;;;;10.92;75.12;98402.30;27241;1218;3026606;-66
2021/09/25 01:10:04;;;;;;;11.20;7.70;;;;;;;10.64;75.70;98403.95;27218;1218;3026481;-70
2021/09/25 01:12:33;;;;;;;14.70;8.20;;;;;;;10.40;76.20;98408.58;27199;1217;3068208;-73
2021/09/25 01:15:04;;;;;;;14.20;7.90;;;;;;;10.16;77.34;98411.39;27256;1217;3026532;-68
2021/09/25 01:17:33;;;;;;;12.70;6.80;;;;;;;10.67;76.54;98417.94;27350;1218;3050050;-70
2021/09/25 01:20:03;;;;;;;17.60;8.40;;;;;;;10.97;75.26;98418.88;27251;1218;3026163;-70
2021/09/25 01:22:31;;;;;;;16.90;7.80;;;;;;;10.64;75.60;98418.84;27263;1218;3051990;-65
2021/09/25 01:25:03;;;;;;;12.20;6.80;;;;;;;10.31;76.65;98424.79;27217;1218;3025882;-63
2021/09/25 01:27:32;;;;;;;9.80;6.40;;;;;;;10.08;77.32;98430.21;27241;1219;3048381;-67
2021/09/25 01:30:04;;;;;;;19.90;7.50;;;;;;;10.07;77.64;98439.41;27276;1217;3026133;-70
2021/09/25 01:32:33;;;;;;;11.50;6.40;;;;;;;10.40;77.37;98440.09;27241;1219;3055650;-64
2021/09/25 01:35:02;;;;;;;16.80;7.50;;;;;;;10.70;75.52;98438.91;27281;1209;3026049;-64
2021/09/25 01:37:31;;;;;;;14.10;7.90;;;;;;;10.51;75.81;98440.31;27272;1217;3052436;-65
2021/09/25 01:40:00;;;;;;;11.50;7.60;;;;;;;10.17;76.52;98444.62;27216;1217;3026972;-65
2021/09/25 01:42:29;;;;;;;11.30;6.80;;;;;;;9.94;77.31;98446.27;27250;1217;3055092;-69
2021/09/25 01:44:58;;;;;;;10.30;6.40;;;;;;;10.08;77.22;98452.29;27254;1217;3026504;-64
2021/09/25 01:47:27;;;;;;;13.90;6.60;;;;;;;10.41;76.04;98448.09;27259;1218;3048027;-65
2021/09/25 01:49:59;;;;;;;15.40;8.10;;;;;;;10.34;75.89;98455.75;27200;1218;3026465;-67
2021/09/25 01:52:28;;;;;;;15.30;7.40;;;;;;;10.25;75.89;98458.17;27224;1217;3067600;-67
2021/09/25 01:54:57;;;;;;;12.40;8.20;;;;;;;10.02;76.35;98461.11;27213;1217;3029558;-71
2021/09/25 01:57:26;;;;;;;9.80;5.30;;;;;;;9.78;77.32;98465.13;27201;1218;3026504;-65
2021/09/25 01:59:55;;;;;;;8.40;5.10;;;;;;;10.26;76.60;98460.73;27188;1216;3027915;-67
2021/09/25 02:02:24;;;;;;;9.50;6.60;;;;;;;10.63;74.94;98454.95;27255;1219;3048395;-65
2021/09/25 02:04:53;;;;;;;11.90;6.60;;;;;;;10.52;74.52;98460.23;27270;1217;3026321;-71
2021/09/25 02:07:22;;;;;;;16.10;7.70;;;;;;;10.29;74.97;98463.66;27223;1218;3070719;-70
2021/09/25 02:09:51;;;;;;;14.30;7.60;;;;;;;9.95;76.08;98466.02;27275;1217;3026252;-64
2021/09/25 02:12:20;;;;;;;9.70;5.30;;;;;;;9.92;76.19;98467.59;27265;1217;3052095;-65
2021/09/25 02:14:49;;;;;;;10.40;6.20;;;;;;;10.34;75.45;98467.52;27299;1217;3026403;-64
2021/09/25 02:17:21;;;;;;;13.90;7.40;;;;;;;10.35;75.15;98469.89;27251;1218;3051794;-62
2021/09/25 02:19:50;;;;;;;12.10;7.40;;;;;;;10.42;74.62;98471.26;27278;1218;3027189;-66
2021/09/25 02:22:19;;;;;;;14.40;8.30;;;;;;;10.02;75.55;98474.56;27223;1218;3025895;-69
2021/09/25 02:24:48;;;;;;;15.60;7.90;;;;;;;9.84;76.14;98486.92;27234;1218;3051415;-67
2021/09/25 02:27:17;;;;;;;11.60;5.30;;;;;;;9.64;77.38;98491.35;27294;1217;3026093;-67
2021/09/25 02:29:45;;;;;;;9.50;6.00;;;;;;;10.15;76.27;98483.27;27266;1218;3050839;-71
2021/09/25 02:32:14;;;;;;;20.80;7.30;;;;;;;10.43;75.12;98483.97;27300;1218;3027965;-73
2021/09/25 02:34:43;;;;;;;13.50;7.70;;;;;;;10.39;74.65;98491.29;27304;1217;3058129;-63
2021/09/25 02:37:12;;;;;;;28.00;9.00;;;;;;;10.23;74.98;98489.81;27311;1218;3026409;-70
2021/09/25 02:39:41;;;;;;;14.20;7.70;;;;;;;9.96;75.71;98495.48;27344;1217;3054531;-72
2021/09/25 02:42:10;;;;;;;16.60;8.40;;;;;;;9.75;76.63;98506.27;27314;1209;3026109;-68
2021/09/25 02:44:39;;;;;;;14.40;5.70;;;;;;;9.66;76.77;98505.84;27313;1217;3051123;-70
2021/09/25 02:47:08;;;;;;;9.90;5.50;;;;;;;10.22;76.13;98504.94;27263;1218;3026380;-68
2021/09/25 02:49:37;;;;;;;14.10;5.70;;;;;;;10.74;73.65;98502.64;27293;1218;3048278;-66
2021/09/25 02:52:05;;;;;;;12.50;6.70;;;;;;;10.68;73.33;98504.03;27315;1218;3026433;-65
2021/09/25 02:54:34;;;;;;;15.80;7.60;;;;;;;10.40;74.08;98508.50;27254;1217;3068257;-69
2021/09/25 02:57:04;;;;;;;16.40;7.90;;;;;;;10.13;74.73;98511.20;27299;1218;3028319;-62
2021/09/25 02:59:34;;;;;;;14.90;6.70;;;;;;;9.86;75.77;98517.05;27301;1218;3051773;-64
2021/09/25 03:02:02;;;;;;;11.70;6.30;;;;;;;9.80;76.03;98514.98;27256;1218;3027102;-69
2021/09/25 03:04:31;;;;;;;14.80;6.70;;;;;;;10.25;75.24;98513.12;27238;1217;3051819;-67
2021/09/25 03:07:00;;;;;;;12.20;5.50;;;;;;;10.87;73.22;98516.02;27215;1208;3026256;-69
2021/09/25 03:09:30;;;;;;;19.50;7.10;;;;;;;10.89;72.29;98518.45;27256;1217;3051176;-67
2021/09/25 03:11:58;;;;;;;11.70;7.20;;;;;;;10.57;72.73;98520.89;27233;1218;3025987;-66
2021/09/25 03:14:27;;;;;;;13.30;7.00;;;;;;;10.33;73.23;98521.64;27353;1217;3026096;-68
2021/09/25 03:16:56;;;;;;;11.90;7.20;;;;;;;10.07;73.80;98525.62;27208;1218;3051156;-68
2021/09/25 03:19:25;;;;;;;13.40;5.90;;;;;;;9.87;74.87;98532.34;27241;1217;3026397;-66
2021/09/25 03:21:54;;;;;;;10.50;5.20;;;;;;;10.20;74.63;98529.96;27253;1218;3055783;-70
2021/09/25 03:24:23;;;;;;;13.80;7.10;;;;;;;10.56;73.49;98531.15;27252;1218;3027432;-67
2021/09/25 03:26:52;;;;;;;13.10;7.30;;;;;;;10.38;73.73;98532.68;27277;1217;3052424;-66
2021/09/25 03:29:21;;;;;;;12.70;6.90;;;;;;;10.30;73.62;98539.03;27261;1218;3026411;-64
2021/09/25 03:31:51;;;;;;;16.00;7.60;;;;;;;10.03;74.26;98541.30;27287;1218;3050906;-65
2021/09/25 03:34:20;;;;;;;13.00;6.90;;;;;;;9.70;75.35;98548.38;27253;1208;3026658;-69
2021/09/25 03:36:48;;;;;;;14.10;6.30;;;;;;;9.64;75.60;98550.95;27473;1218;3026300;-61
2021/09/25 03:39:17;;;;;;;9.90;5.50;;;;;;;10.12;75.24;98551.70;27594;1217;3051316;-62
2021/09/25 03:41:46;;;;;;;17.30;6.40;;;;;;;10.71;73.11;98549.84;27412;1218;3026384;-69
2021/09/25 03:44:15;;;;;;;13.30;7.10;;;;;;;10.72;72.08;98557.94;27287;1217;3047936;-63
2021/09/25 03:46:44;;;;;;;14.30;7.30;;;;;;;10.28;73.14;98561.56;27338;1218;3025934;-62
2021/09/25 03:49:13;;;;;;;17.30;7.90;;;;;;;10.04;73.74;98562.99;27253;1208;3069869;-68
2021/09/25 03:51:42;;;;;;;15.10;8.40;;;;;;;9.59;75.63;98571.23;27244;1218;3027645;-67
2021/09/25 03:54:11;;;;;;;15.30;5.80;;;;;;;9.48;76.17;98575.70;27285;1218;3050268;-66
2021/09/25 03:56:39;;;;;;;13.00;5.90;;;;;;;9.99;75.76;98582.89;27274;1217;3028473;-69
2021/09/25 03:59:08;;;;;;;16.10;7.10;;;;;;;10.65;73.29;98580.00;27283;1217;3051278;-66
2021/09/25 04:01:37;;;;;;;13.00;6.70;;;;;;;10.73;72.58;98580.00;27278;1218;3026228;-62
2021/09/25 04:04:06;;;;;;;12.90;7.10;;;;;;;10.46;72.78;98585.12;27281;1218;3048384;-67
2021/09/25 04:06:35;;;;;;;16.60;8.40;;;;;;;10.31;72.83;98589.67;27290;1217;3028727;-70
2021/09/25 04:09:06;;;;;;;15.50;7.50;;;;;;;10.09;73.01;98596.21;27250;1217;3055721;-69
2021/09/25 04:11:35;;;;;;;16.30;5.90;;;;;;;9.80;74.75;98606.11;27261;1218;3026118;-66
2021/09/25 04:14:04;;;;;;;10.50;5.40;;;;;;;10.22;74.28;98606.98;27272;1208;3026584;-66
2021/09/25 04:16:33;;;;;;;14.40;6.50;;;;;;;10.46;73.15;98608.58;27241;1217;3055204;-69
2021/09/25 04:19:03;;;;;;;18.80;8.10;;;;;;;10.19;73.72;98614.52;27226;1217;3026464;-69
2021/09/25 04:21:31;;;;;;;23.70;9.20;;;;;;;10.07;74.03;98619.95;27289;1209;3025723;-70
2021/09/25 04:24:00;;;;;;;24.00;9.50;;;;;;;9.87;74.78;98625.56;27259;1217;3055295;-66
2021/09/25 04:26:29;;;;;;;13.40;5.90;;;;;;;9.76;75.47;98626.53;27206;1218;3027006;-67
2021/09/25 04:28:58;;;;;;;10.70;5.40;;;;;;;10.27;74.17;98628.48;27212;1217;3051321;-66
2021/09/25 04:31:28;;;;;;;13.80;7.10;;;;;;;10.57;72.48;98632.97;27250;1217;3028144;-62
2021/09/25 04:33:57;;;;;;;13.40;6.70;;;;;;;10.58;72.46;98635.52;27187;1218;3029618;-65
2021/09/25 04:36:25;;;;;;;15.30;6.90;;;;;;;10.40;72.43;98641.02;27268;1217;3051251;-67
2021/09/25 04:38:54;;;;;;;18.40;7.60;;;;;;;10.11;73.54;98634.39;27237;1218;3028725;-69
2021/09/25 04:41:23;;;;;;;15.90;7.30;;;;;;;9.91;74.09;98642.74;27272;1217;3054039;-69
2021/09/25 04:43:52;;;;;;;10.60;4.90;;;;;;;9.74;75.06;98635.73;27237;1218;3026854;-68
2021/09/25 04:46:21;;;;;;;11.60;5.60;;;;;;;10.26;74.31;98638.56;27270;1218;3047678;-68
2021/09/25 04:48:50;;;;;;;13.50;6.00;;;;;;;10.72;72.51;98637.47;27241;1217;3026807;-67
2021/09/25 04:51:19;;;;;;;15.40;5.60;;;;;;;10.66;72.40;98642.52;27239;1218;3068046;-66
2021/09/25 04:53:48;;;;;;;20.70;5.50;;;;;;;10.62;72.30;98645.98;27265;1218;3025952;-68
2021/09/25 04:56:17;;;;;;;15.90;7.50;;;;;;;10.35;72.90;98638.80;27276;1217;3049882;-72
2021/09/25 04:58:46;;;;;;;11.80;4.20;;;;;;;10.21;73.55;98643.65;27284;1218;3027300;-72
2021/09/25 05:01:15;;;;;;;11.50;5.20;;;;;;;10.32;74.33;98642.14;27249;1218;3054562;-66
2021/09/25 05:03:44;;;;;;;11.20;5.90;;;;;;;10.52;73.44;98643.38;27245;1218;3026325;-67
2021/09/25 05:06:13;;;;;;;12.90;5.90;;;;;;;10.48;73.93;98640.70;27240;1218;3049020;-66
2021/09/25 05:08:43;;;;;;;16.60;6.90;;;;;;;10.55;73.20;98646.48;27204;1218;3029638;-72
2021/09/25 05:11:12;;;;;;;15.70;6.70;;;;;;;10.27;74.39;98651.59;27227;1218;3028432;-69
2021/09/25 05:13:40;;;;;;;14.70;5.40;;;;;;;10.22;74.59;98653.73;27241;1217;3048929;-67
2021/09/25 05:16:09;;;;;;;13.70;4.70;;;;;;;10.78;73.91;98654.71;27262;1218;3027599;-72
2021/09/25 05:18:40;;;;;;;12.10;5.60;;;;;;;11.14;72.46;98649.29;27250;1218;3054197;-66
2021/09/25 05:21:09;;;;;;;12.50;6.40;;;;;;;10.93;72.77;98654.14;27217;1217;3026447;-73
2021/09/25 05:23:38;;;;;;;16.80;6.30;;;;;;;10.62;73.89;98653.30;27277;1218;3026122;-74
2021/09/25 05:26:07;;;;;;;13.00;6.80;;;;;;;10.46;74.49;98657.05;27219;1218;3055890;-69
2021/09/25 05:28:36;;;;;;;8.40;4.00;;;;;;;10.22;76.37;98661.73;27202;1201;3026409;-68
2021/09/25 05:31:06;;;;;;;7.30;4.20;;;;;;;11.11;74.57;98663.80;27295;1217;3051381;-68
2021/09/25 05:33:35;;;;;;;11.00;5.10;;;;;;;11.73;71.67;98655.64;27242;1217;3026552;-64
2021/09/25 05:36:04;;;;;;;16.50;6.20;;;;;;;11.55;71.98;98663.13;27271;1208;3025944;-69
2021/09/25 05:38:33;;;;;;;13.80;5.80;;;;;;;11.41;72.54;98667.55;27215;1217;3051256;-71
2021/09/25 05:41:02;;;;;;;13.80;7.30;;;;;;;11.05;74.09;98675.33;27254;1216;3027683;-72
2021/09/25 05:43:30;;;;;;;15.90;8.90;;;;;;;10.96;74.15;98679.66;27327;1216;3049890;-69
2021/09/25 05:45:59;;;;;;;15.90;6.90;;;;;;;10.90;75.27;98688.55;27311;1216;3026610;-70
2021/09/25 05:48:30;;;;;;;14.30;7.50;;;;;;;11.45;73.93;98684.23;27231;1216;3048508;-72
2021/09/25 05:51:00;;;;;;;19.10;9.60;;;;;;;11.91;72.55;98693.13;27264;1216;3028486;-67
2021/09/25 05:53:28;;;;;;;20.80;9.20;;;;;;;12.05;71.29;98706.15;27254;1216;3025619;-67
2021/09/25 05:55:57;;;;;;;24.10;11.60;;;;;;;11.94;71.44;98719.39;27230;1216;3027919;-70
2021/09/25 05:58:26;;;;;;;19.40;12.70;;;;;;;11.73;72.64;98725.59;27244;1216;3054159;-67
2021/09/25 06:00:56;;;;;;;19.10;10.10;;;;;;;11.66;72.39;98728.42;27281;1209;3026605;-67
2021/09/25 06:03:24;;;;;;;12.00;6.10;;;;;;;11.67;72.31;98730.14;27247;1216;3047513;-72
2021/09/25 06:05:53;;;;;;;13.80;7.50;;;;;;;12.04;72.10;98741.84;27289;1216;3025736;-68
2021/09/25 06:08:22;;;;;;;15.90;8.60;;;;;;;12.51;70.33;98737.58;27183;1217;3068240;-67
2021/09/25 06:10:51;;;;;;;18.90;10.40;;;;;;;12.46;69.97;98740.43;27255;1216;3026071;-67
2021/09/25 06:13:20;;;;;;;16.10;9.80;;;;;;;12.31;70.51;98735.04;27276;1216;3049842;-69
2021/09/25 06:15:49;;;;;;;19.70;12.10;;;;;;;12.13;70.97;98741.46;27213;1216;3026901;-63
2021/09/25 06:18:18;;;;;;;22.40;12.10;;;;;;;11.83;72.07;98757.64;27261;1216;3052439;-70
2021/09/25 06:20:46;;;;;;;20.80;13.10;;;;;;;11.50;73.47;98762.27;27247;1216;3028399;-70
2021/09/25 06:23:15;;;;;;;17.50;8.70;;;;;;;11.62;73.15;98758.38;27216;1218;3052937;-71
2021/09/25 06:25:44;;;;;;;16.80;7.90;;;;;;;12.21;72.22;98761.17;27277;1209;3025655;-70
2021/09/25 06:28:13;;;;;;;14.00;8.20;;;;;;;12.72;69.60;98767.00;27229;1216;3054817;-71
2021/09/25 06:30:42;;;;;;;18.40;8.30;;;;;;;12.89;69.36;98767.07;27243;1218;3026569;-71
2021/09/25 06:33:11;;;;;;;17.90;8.80;;;;;;;12.82;69.37;98772.38;27240;1216;3051370;-67
2021/09/25 06:35:40;;;;;;;15.70;9.00;;;;;;;12.63;69.68;98776.21;27261;1216;3026321;-72
2021/09/25 06:38:09;;;;;;;15.40;8.40;;;;;;;12.49;70.50;98792.88;27251;1217;3028016;-66
2021/09/25 06:40:38;;;;;;;22.60;9.00;;;;;;;12.21;70.74;98795.83;27273;1216;3054497;-66
2021/09/25 06:43:07;;;;;;;12.10;6.60;;;;;;;12.08;71.55;98796.83;27294;1216;3026170;-69
2021/09/25 06:45:38;;;;;;;13.10;5.60;;;;;;;12.65;70.62;98800.44;27266;1216;3051349;-73
2021/09/25 06:48:08;;;;;;;17.20;7.60;;;;;;;13.10;68.66;98805.66;27269;1216;3026456;-63
2021/09/25 06:50:37;;;;;;;16.80;8.60;;;;;;;13.07;68.30;98807.24;27244;1216;3026430;-65
2021/09/25 06:53:06;;;;;;;20.20;9.60;;;;;;;12.89;69.23;98808.36;27218;1216;3026643;-66
2021/09/25 06:55:36;;;;;;;17.90;10.40;;;;;;;12.81;69.54;98813.63;27266;1216;3054546;-68
2021/09/25 06:58:06;;;;;;;25.10;11.40;;;;;;;12.63;69.80;98821.02;27280;1216;3029557;-69
2021/09/25 07:00:36;;;;;;;25.90;11.80;;;;;;;12.38;70.39;98824.35;27237;1216;3051453;-72
2021/09/25 07:03:05;;;;;;;17.80;7.20;;;;;;;12.08;71.77;98837.86;27221;1216;3026929;-68
2021/09/25 07:05:36;;;;;;;17.80;6.00;;;;;;;12.47;70.83;98840.88;27238;1216;3048016;-68
2021/09/25 07:08:05;;;;;;;17.80;7.40;;;;;;;12.85;69.62;98834.02;27227;1216;3026274;-69
2021/09/25 07:10:34;;;;;;;16.80;7.70;;;;;;;12.75;69.51;98836.16;27234;1216;3068098;-67
2021/09/25 07:13:03;;;;;;;12.90;8.00;;;;;;;12.70;69.86;98837.80;27267;1216;3026010;-68
2021/09/25 07:15:33;;;;;;;19.70;9.40;;;;;;;12.48;70.64;98843.73;27242;1216;3053574;-70
2021/09/25 07:18:02;;;;;;;18.00;7.70;;;;;;;12.37;70.90;98849.91;27207;1216;3026681;-71
2021/09/25 07:20:31;;;;;;;16.00;7.40;;;;;;;12.25;70.95;98850.11;27258;1216;3054401;-70
2021/09/25 07:23:00;;;;;;;15.10;4.60;;;;;;;11.84;72.78;98858.33;27254;1216;3025744;-64
2021/09/25 07:25:30;;;;;;;10.00;4.20;;;;;;;12.45;71.79;98856.80;27225;1216;3048955;-72
2021/09/25 07:27:59;;;;;;;9.30;4.80;;;;;;;12.82;70.21;98851.45;27259;1216;3026829;-69
2021/09/25 07:30:27;;;;;;;11.80;5.50;;;;;;;12.94;69.57;98851.74;27267;1208;3026403;-70
2021/09/25 07:32:58;;;;;;;12.40;6.00;;;;;;;13.00;69.31;98849.30;27204;1216;3052202;-64
2021/09/25 07:35:27;;;;;;;12.70;6.40;;;;;;;12.92;69.31;98846.81;27214;1216;3026110;-69
2021/09/25 07:37:56;;;;;;;16.40;6.00;;;;;;;12.74;69.46;98855.27;27239;1216;3026548;-66
2021/09/25 07:40:25;;;;;;;13.50;6.10;;;;;;;12.49;70.67;98861.08;27263;1216;3051143;-68
2021/09/25 07:42:54;;;;;;;7.10;3.90;;;;;;;12.71;70.18;98858.14;27229;1210;3026362;-75
2021/09/25 07:45:23;;;;;;;9.70;3.00;;;;;;;13.38;68.49;98862.80;27203;1218;3055192;-66
2021/09/25 07:47:52;;;;;;;6.80;3.00;;;;;;;13.96;65.96;98864.84;27216;1216;3026229;-70
2021/09/25 07:50:20;;;;;;;5.70;2.50;;;;;;;13.97;65.09;98866.73;27242;1218;3052128;-67
2021/09/25 07:52:50;;;;;;;4.90;2.40;;;;;;;13.91;64.74;98863.08;27249;1216;3028287;-71
2021/09/25 07:55:19;;;;;;;3.20;1.90;;;;;;;13.54;65.66;98875.77;27293;1216;3050848;-67
2021/09/25 07:57:48;;;;;;;1.90;1.70;;;;;;;13.29;66.39;98879.20;27216;1216;3026364;-67
2021/09/25 08:00:17;;;;;;;2.30;1.70;;;;;;;13.10;67.44;98883.68;27257;1216;3048082;-71
2021/09/25 08:02:46;;;;;;;6.20;2.40;;;;;;;12.96;67.31;98882.02;27244;1216;3026473;-66
2021/09/25 08:05:14;;;;;;;4.10;2.10;;;;;;;12.80;68.01;98869.87;27227;1216;3066369;-70
2021/09/25 08:07:43;;;;;;;5.90;2.40;;;;;;;12.99;67.93;98872.10;27281;1216;3026559;-68
2021/09/25 08:10:13;;;;;;;2.50;1.30;;;;;;;13.22;67.56;98870.61;27290;1216;3050451;-69
2021/09/25 08:12:43;;;;;;;4.60;1.40;;;;;;;13.97;65.82;98870.14;27279;1216;3027006;-68
2021/09/25 08:15:13;;;;;;;1.90;1.30;;;;;;;14.34;63.42;98861.55;27252;1209;3025869;-67
2021/09/25 08:17:42;;;;;;;3.00;1.50;;;;;;;14.52;62.45;98857.86;27267;1216;3051238;-70
2021/09/25 08:20:13;;;;;;;2.40;1.10;;;;;;;14.27;62.44;98861.09;27224;1216;3027474;-72
2021/09/25 08:22:42;;;;;;;1.70;1.10;;;;;;;14.12;62.17;98864.77;27268;1216;3027537;-72
2021/09/25 08:25:11;;;;;;;5.20;1.50;;;;;;;13.95;63.46;98867.45;27195;1216;3027076;-69
2021/09/25 08:27:42;;;;;;;2.10;1.20;;;;;;;14.05;63.96;98868.91;27289;1216;3026456;-66
2021/09/25 08:30:11;;;;;;;3.90;1.50;;;;;;;14.09;64.34;98872.78;27249;1216;3025928;-68
2021/09/25 08:32:41;;;;;;;1.60;1.10;;;;;;;14.06;64.82;98878.11;27278;1216;3050913;-68
2021/09/25 08:35:10;;;;;;;4.20;1.30;;;;;;;14.06;62.40;98875.83;27300;1216;3026499;-65
2021/09/25 08:37:40;;;;;;;2.40;1.30;;;;;;;13.86;63.33;98874.14;27309;1216;3048055;-74
2021/09/25 08:40:11;;;;;;;3.60;1.20;;;;;;;13.70;64.49;98890.28;27270;1216;3026755;-71
2021/09/25 08:42:40;;;;;;;3.00;1.40;;;;;;;13.52;65.22;98891.05;27236;1216;3026100;-76
2021/09/25 08:45:09;;;;;;;1.60;1.10;;;;;;;13.06;68.18;98899.82;27243;1216;3025844;-73
2021/09/25 08:47:39;;;;;;;2.70;1.60;;;;;;;13.49;67.89;98899.37;27228;1216;3053393;-67
2021/09/25 08:50:08;;;;;;;4.60;2.10;;;;;;;13.88;66.66;98895.66;27279;1218;3026506;-70
2021/09/25 08:52:37;;;;;;;7.90;3.70;;;;;;;13.83;66.86;98896.80;27279;1218;3047656;-73
2021/09/25 08:55:07;;;;;;;10.60;3.60;;;;;;;13.74;66.83;98895.05;27286;1209;3026465;-71
2021/09/25 08:57:36;;;;;;;8.00;3.60;;;;;;;13.46;67.95;98905.94;27292;1216;3067141;-69
2021/09/25 09:00:25;;;;;;;6.80;3.80;;;;;;;13.30;68.83;98908.65;27331;1209;3026064;-71
2021/09/25 09:02:54;;;;;;;8.20;3.50;;;;;;;13.16;69.30;98921.01;27250;1217;3053660;-67
2021/09/25 09:05:27;;;;;;;6.40;2.90;;;;;;;12.86;70.67;98923.73;27310;1208;3026424;-68
2021/09/25 09:08:00;;;;;;;8.50;2.20;;;;;;;12.58;71.98;98931.17;27302;1208;3053924;-69
2021/09/25 09:10:35;;;;;;;8.10;1.70;;;;;;;13.15;70.29;98930.38;27248;1217;3026393;-68
2021/09/25 09:13:05;;;;;;;4.10;1.80;;;;;;;13.43;69.14;98928.03;27241;1218;3067619;-69
2021/09/25 09:15:36;;;;;;;2.40;1.50;;;;;;;13.46;68.31;98931.65;27232;1216;3026257;-69
2021/09/25 09:18:16;;;;;;;4.10;1.80;;;;;;;13.32;68.22;98940.46;27232;1218;3026900;-66
2021/09/25 09:21:00;;;;;;;5.20;2.20;;;;;;;13.22;68.24;98939.52;27249;1216;3052649;-66
2021/09/25 09:23:29;;;;;;;4.70;2.50;;;;;;;13.24;68.05;98945.73;27270;1216;3056088;-72
2021/09/25 09:25:59;;;;;;;4.90;2.20;;;;;;;13.19;68.42;98946.80;27324;1216;3026474;-64
2021/09/25 09:28:30;;;;;;;4.10;2.10;;;;;;;13.12;67.65;98949.13;27249;1218;3026044;-65
2021/09/25 09:31:00;;;;;;;4.40;2.50;;;;;;;13.08;67.82;98954.70;27255;1216;3028067;-70
2021/09/25 09:33:42;;;;;;;5.40;2.10;;;;;;;13.18;67.78;98957.39;27198;1217;3026867;-69
2021/09/25 09:36:41;;;;;;;4.70;1.90;;;;;;;13.76;66.01;98963.69;27263;1216;3049007;-70
2021/09/25 09:39:15;;;;;;;8.40;3.10;;;;;;;14.17;64.50;98967.43;27559;1216;3051888;-68
2021/09/25 09:41:50;;;;;;;4.90;2.90;;;;;;;14.06;64.37;98971.16;27610;1216;3053019;-62
2021/09/25 09:44:20;;;;;;;9.10;4.20;;;;;;;13.71;65.20;98972.79;27582;1216;3058688;-72
2021/09/25 09:47:00;;;;;;;16.20;5.90;;;;;;;13.49;65.19;98984.50;27316;1216;3027264;-68
2021/09/25 09:49:34;;;;;;;12.10;5.20;;;;;;;13.15;66.34;98989.49;27232;1216;3052513;-67
2021/09/25 09:52:04;;;;;;;12.60;5.50;;;;;;;13.02;66.84;98991.59;27231;1216;3050526;-65
2021/09/25 09:54:37;;;;;;;16.80;5.90;;;;;;;12.93;67.34;98991.73;27227;1218;3028199;-68
2021/09/25 09:57:11;;;;;;;14.70;6.80;;;;;;;13.00;67.52;98997.20;27271;1218;3051066;-71
2021/09/25 09:59:41;;;;;;;18.40;4.80;;;;;;;13.08;67.67;98992.83;27244;1218;3025951;-70
2021/09/25 10:02:10;;;;;;;5.30;3.60;;;;;;;13.71;66.42;98992.59;27249;1216;3026937;-70
2021/09/25 10:04:39;;;;;;;9.50;3.90;;;;;;;14.20;65.23;98990.05;27227;1216;3026279;-76
2021/09/25 10:07:08;;;;;;;5.30;2.80;;;;;;;14.36;64.61;98991.14;27226;1217;3050741;-69
2021/09/25 10:09:39;;;;;;;8.10;3.70;;;;;;;14.22;64.73;98991.27;27247;1217;3026155;-73
2021/09/25 10:12:10;;;;;;;5.80;2.50;;;;;;;14.15;65.03;98996.47;27253;1217;3047358;-67
2021/09/25 10:14:41;;;;;;;4.80;2.60;;;;;;;13.93;65.81;99001.20;27274;1216;3026184;-70
2021/09/25 10:17:11;;;;;;;5.90;1.50;;;;;;;13.59;66.11;99004.16;27289;1216;3026477;-66
2021/09/25 10:19:41;;;;;;;8.20;1.60;;;;;;;13.51;65.90;99001.98;27268;1218;3026139;-67
2021/09/25 10:22:21;;;;;;;2.80;1.40;;;;;;;13.35;66.24;99004.63;27251;1216;3026507;-67
2021/09/25 10:24:53;;;;;;;1.60;1.00;;;;;;;13.15;66.18;99000.60;27285;1209;3053464;-63
2021/09/25 10:27:26;;;;;;;1.60;1.20;;;;;;;13.36;65.55;98993.86;27233;1216;3027644;-71
2021/09/25 10:29:55;;;;;;;1.70;1.20;;;;;;;13.52;64.70;98997.98;27265;1216;3026697;-69
2021/09/25 10:32:26;;;;;;;2.40;1.10;;;;;;;13.49;64.42;99001.80;27232;1216;3025947;-66
2021/09/25 10:35:15;;;;;;;3.10;1.50;;;;;;;13.44;64.06;99001.84;27243;1218;3050173;-67
2021/09/25 10:38:10;;;;;;;1.60;1.00;;;;;;;13.47;64.61;99007.08;27265;1218;3071133;-76
2021/09/25 10:40:40;;;;;;;1.80;1.50;;;;;;;13.43;64.78;99010.36;27224;1218;3048535;-69
2021/09/25 10:43:28;;;;;;;4.40;1.10;;;;;;;13.33;65.17;99018.02;27240;1216;3026042;-67
2021/09/25 10:46:00;;;;;;;3.70;1.40;;;;;;;13.34;65.15;99011.21;27273;1216;3053126;-71
2021/09/25 10:48:29;;;;;;;1.80;0.90;;;;;;;13.54;65.15;99009.33;27234;1216;3026419;-68
2021/09/25 10:51:08;;;;;;;3.70;1.10;;;;;;;14.39;63.39;98996.70;27264;1216;3029220;-69
2021/09/25 10:53:46;;;;;;;3.00;1.10;;;;;;;15.26;60.48;98993.37;27247;1218;3052204;-68
2021/09/25 10:56:26;;;;;;;3.10;1.40;;;;;;;15.44;59.60;98986.02;27219;1217;3059445;-67
2021/09/25 10:59:06;;;;;;;1.30;1.00;;;;;;;15.62;57.82;98987.63;27235;1218;3049868;-70
2021/09/25 11:01:36;;;;;;;1.80;1.00;;;;;;;15.40;57.12;98986.17;27275;1216;3053186;-72
2021/09/25 11:04:10;;;;;;;4.10;1.30;;;;;;;15.31;57.38;98979.56;27261;1216;3026841;-69
2021/09/25 11:06:48;;;;;;;3.60;1.80;;;;;;;15.13;57.91;98982.90;27271;1217;3068176;-66
2021/09/25 11:09:30;;;;;;;4.40;1.50;;;;;;;15.05;58.39;98989.25;27260;1216;3049284;-67
2021/09/25 11:12:05;;;;;;;2.30;1.60;;;;;;;15.22;58.20;98982.96;27314;1216;3051497;-65
2021/09/25 11:14:44;;;;;;;2.80;2.20;;;;;;;15.34;57.52;98988.11;27226;1216;3055147;-65
2021/09/25 11:17:19;;;;;;;4.00;2.00;;;;;;;15.34;56.39;98988.31;27270;1216;3058450;-71
2021/09/25 11:19:52;;;;;;;5.20;2.10;;;;;;;15.16;57.11;98996.20;27222;1217;3049494;-71
2021/09/25 11:22:21;;;;;;;2.70;1.80;;;;;;;15.13;57.38;98999.32;27260;1216;3026147;-64
2021/09/25 11:25:03;;;;;;;5.20;2.50;;;;;;;15.04;57.84;99008.52;27252;1218;3026182;-67